Time;durP1;ratioP1;P1;durP2;ratioP2;P2;SDS_P1;SDS_P2;PMS_P1;PMS_P2;Temp;Humidity;BMP_temperature;BMP_pressure;BME280_temperature;BME280_humidity;BME280_pressure;Samples;Min_cycle;Max_cycle;Signal;HPM_P1;HPM_P2
2022/04/12 00:00:59;;;;;;;15.63;11.25;;;11.70;99.90;;;;;;4898703;29;20052;-66
2022/04/12 00:03:26;;;;;;;19.55;11.38;;;11.70;99.90;;;;;;4914621;29;20124;-65
2022/04/12 00:05:53;;;;;;;14.88;11.40;;;11.60;99.90;;;;;;4898779;29;20056;-66
2022/04/12 00:08:20;;;;;;;17.80;12.82;;;11.60;99.90;;;;;;4914970;29;20048;-66
2022/04/12 00:10:48;;;;;;;16.80;11.35;;;11.50;99.90;;;;;;4915502;29;20048;-70
2022/04/12 00:13:17;;;;;;;17.13;11.60;;;11.50;99.90;;;;;;4915968;29;20060;-66
2022/04/12 00:15:45;;;;;;;;;;;11.40;99.90;;;;;;4930100;29;20064;-65
2022/04/12 00:20:57;;;;;;;18.00;11.02;;;11.20;99.90;;;;;;4915555;29;20047;-66
2022/04/12 00:23:24;;;;;;;16.50;11.60;;;11.20;99.90;;;;;;4915104;29;20092;-66
2022/04/12 00:25:53;;;;;;;18.50;11.80;;;11.20;99.90;;;;;;4915501;29;20111;-66
2022/04/12 00:28:20;;;;;;;18.75;13.00;;;11.20;99.90;;;;;;4914862;29;20135;-66
2022/04/12 00:30:47;;;;;;;17.02;11.48;;;11.20;99.90;;;;;;4898266;29;20048;-66
2022/04/12 00:33:14;;;;;;;18.58;11.35;;;11.30;99.90;;;;;;4897849;29;20181;-66
2022/04/12 00:35:40;;;;;;;21.35;12.80;;;11.30;99.90;;;;;;4914770;29;20052;-67
2022/04/12 00:38:22;;;;;;;15.48;10.35;;;11.40;99.90;;;;;;4913424;29;20510;-66
2022/04/12 00:40:49;;;;;;;16.25;10.90;;;11.40;99.90;;;;;;4915354;29;20072;-65
2022/04/12 00:43:17;;;;;;;18.27;11.50;;;11.40;99.90;;;;;;4913924;29;20052;-66
2022/04/12 00:45:45;;;;;;;15.07;11.77;;;11.40;99.90;;;;;;4913851;29;20048;-66
2022/04/12 00:48:13;;;;;;;16.08;11.88;;;11.50;99.90;;;;;;4912786;29;20052;-66
2022/04/12 00:50:40;;;;;;;16.45;10.07;;;11.50;99.90;;;;;;4914039;29;20052;-66
2022/04/12 00:53:08;;;;;;;16.48;10.98;;;11.50;99.90;;;;;;4913897;29;20060;-66
2022/04/12 00:55:34;;;;;;;15.90;10.10;;;11.50;99.90;;;;;;4922404;29;20048;-66
2022/04/12 00:58:07;;;;;;;15.88;11.20;;;11.60;99.90;;;;;;4898557;29;20052;-66
2022/04/12 01:00:34;;;;;;;16.25;10.73;;;11.60;99.90;;;;;;4916341;29;20052;-66
2022/04/12 01:03:02;;;;;;;14.77;10.98;;;11.60;99.90;;;;;;4918556;29;20063;-66
2022/04/12 01:05:29;;;;;;;17.50;12.00;;;11.60;99.90;;;;;;4919176;29;20051;-66
2022/04/12 01:07:56;;;;;;;14.25;10.30;;;11.70;99.90;;;;;;4917933;29;20075;-67
2022/04/12 01:10:23;;;;;;;15.95;11.25;;;11.60;99.90;;;;;;4918117;29;20055;-66
2022/04/12 01:12:53;;;;;;;15.32;11.88;;;11.60;99.90;;;;;;4918926;29;20056;-66
2022/04/12 01:15:22;;;;;;;16.50;11.05;;;11.60;99.90;;;;;;4925756;29;20056;-66
2022/04/12 01:17:49;;;;;;;17.80;11.53;;;11.60;99.90;;;;;;4917660;29;20055;-66
2022/04/12 01:20:18;;;;;;;16.77;10.30;;;11.60;99.90;;;;;;4919605;29;20055;-66
2022/04/12 01:22:51;;;;;;;17.15;11.23;;;11.50;99.90;;;;;;4919245;29;20043;-67
2022/04/12 01:25:19;;;;;;;15.45;10.18;;;11.50;99.90;;;;;;4918980;29;20059;-66
2022/04/12 01:27:46;;;;;;;16.05;10.13;;;11.50;99.90;;;;;;4917658;29;20055;-65
2022/04/12 01:30:13;;;;;;;17.58;10.88;;;11.60;99.90;;;;;;4923402;29;20095;-66
2022/04/12 01:32:40;;;;;;;18.02;11.32;;;11.60;99.90;;;;;;4919087;29;20055;-67
2022/04/12 01:35:07;;;;;;;16.73;11.25;;;11.60;99.90;;;;;;4923843;29;20060;-65
2022/04/12 01:37:34;;;;;;;17.40;10.88;;;11.60;99.90;;;;;;4918184;29;20051;-66
2022/04/12 01:40:02;;;;;;;17.33;12.07;;;11.60;99.90;;;;;;4910915;29;20048;-66
2022/04/12 01:42:29;;;;;;;16.40;10.90;;;11.60;99.90;;;;;;4912356;29;20048;-66
2022/04/12 01:44:56;;;;;;;14.43;10.60;;;11.60;99.90;;;;;;4922348;29;20048;-66
2022/04/12 01:47:23;;;;;;;18.90;12.02;;;11.50;99.90;;;;;;4918597;29;20055;-66
2022/04/12 01:49:50;;;;;;;15.00;11.30;;;11.60;99.90;;;;;;4917745;29;20420;-66
2022/04/12 01:52:17;;;;;;;14.63;10.25;;;11.60;99.90;;;;;;4917663;29;20048;-66
2022/04/12 01:54:44;;;;;;;15.55;10.80;;;11.60;99.90;;;;;;4916206;29;20052;-66
2022/04/12 01:57:10;;;;;;;17.17;11.30;;;11.50;99.90;;;;;;4918975;29;20522;-66
2022/04/12 01:59:37;;;;;;;16.73;12.43;;;11.60;99.90;;;;;;4916630;29;20047;-65
2022/04/12 02:02:04;;;;;;;16.00;10.88;;;11.50;99.90;;;;;;4918288;29;20496;-66
2022/04/12 02:04:31;;;;;;;17.52;11.80;;;11.50;99.90;;;;;;4916696;29;20056;-66
2022/04/12 02:06:58;;;;;;;15.85;10.98;;;11.50;99.90;;;;;;4922793;29;20048;-65
2022/04/12 02:09:25;;;;;;;15.65;11.52;;;11.60;99.90;;;;;;4917118;29;20059;-71
2022/04/12 02:11:55;;;;;;;17.77;11.02;;;11.60;99.90;;;;;;4915926;29;20056;-66
2022/04/12 02:14:22;;;;;;;15.68;11.52;;;11.50;99.90;;;;;;4901532;29;20103;-64
2022/04/12 02:16:49;;;;;;;17.95;11.95;;;11.60;99.90;;;;;;4918299;29;20055;-66
2022/04/12 02:19:16;;;;;;;17.92;11.95;;;11.60;99.90;;;;;;4915539;29;20099;-68
2022/04/12 02:21:43;;;;;;;17.52;11.80;;;11.60;99.90;;;;;;4898190;29;20485;-65
2022/04/12 02:24:10;;;;;;;15.50;11.32;;;11.50;99.90;;;;;;4916263;29;20445;-70
2022/04/12 02:26:37;;;;;;;15.85;10.38;;;11.50;99.90;;;;;;4916335;29;20063;-65
2022/04/12 02:29:04;;;;;;;14.30;9.88;;;11.50;99.90;;;;;;4917252;29;20555;-65
2022/04/12 02:31:34;;;;;;;14.68;10.68;;;11.50;99.90;;;;;;4902484;29;20052;-65
2022/04/12 02:34:01;;;;;;;15.38;10.93;;;11.50;99.90;;;;;;4916627;29;20127;-65
2022/04/12 02:36:28;;;;;;;13.45;9.50;;;11.40;99.90;;;;;;4920395;29;20044;-65
2022/04/12 02:38:54;;;;;;;15.23;10.02;;;11.40;99.90;;;;;;4917476;29;20056;-66
2022/04/12 02:41:21;;;;;;;16.13;11.73;;;11.40;99.90;;;;;;4920068;29;20413;-65
2022/04/12 02:43:48;;;;;;;15.10;11.65;;;11.40;99.90;;;;;;4919994;29;20067;-66
2022/04/12 02:46:15;;;;;;;18.00;11.07;;;11.50;99.90;;;;;;4919826;29;20047;-66
2022/04/12 02:48:43;;;;;;;16.38;10.77;;;11.50;99.90;;;;;;4920106;29;20070;-66
2022/04/12 02:51:10;;;;;;;13.93;10.02;;;11.60;99.90;;;;;;4916720;29;20400;-67
2022/04/12 02:53:37;;;;;;;15.02;10.73;;;11.60;99.90;;;;;;4915021;29;20437;-69
2022/04/12 02:56:04;;;;;;;13.52;10.55;;;11.60;99.90;;;;;;4913678;29;20048;-67
2022/04/12 02:58:31;;;;;;;13.65;9.10;;;11.60;99.90;;;;;;4918415;29;20044;-66
2022/04/12 03:00:58;;;;;;;14.02;9.82;;;11.70;99.90;;;;;;4915541;29;20044;-66
2022/04/12 03:03:25;;;;;;;16.88;10.05;;;11.70;99.90;;;;;;4916948;29;20063;-66
2022/04/12 03:05:51;;;;;;;14.10;10.85;;;11.60;99.90;;;;;;4931544;29;20515;-66
2022/04/12 03:08:18;;;;;;;13.63;9.85;;;11.60;99.90;;;;;;4920439;29;20052;-67
2022/04/12 03:10:45;;;;;;;13.60;9.52;;;11.60;99.90;;;;;;4929559;29;20609;-66
2022/04/12 03:13:12;;;;;;;21.10;10.20;;;11.60;99.90;;;;;;4924935;29;20511;-67
2022/04/12 03:15:39;;;;;;;13.85;10.48;;;11.60;99.90;;;;;;4918295;29;20076;-66
2022/04/12 03:18:06;;;;;;;14.35;10.55;;;11.70;99.90;;;;;;4915544;29;20059;-71
2022/04/12 03:20:34;;;;;;;14.82;9.50;;;11.70;99.90;;;;;;4909319;29;20404;-67
2022/04/12 03:23:05;;;;;;;13.93;10.13;;;11.70;99.90;;;;;;4914375;29;20052;-66
2022/04/12 03:25:32;;;;;;;14.88;9.48;;;11.70;99.90;;;;;;4916422;29;20052;-66
2022/04/12 03:27:59;;;;;;;14.68;9.70;;;11.70;99.90;;;;;;4917154;29;20068;-66
2022/04/12 03:30:26;;;;;;;14.95;10.55;;;11.70;99.90;;;;;;4915070;29;20055;-71
2022/04/12 03:32:53;;;;;;;13.45;9.65;;;11.80;99.90;;;;;;4916645;29;20044;-66
2022/04/12 03:35:21;;;;;;;14.45;11.02;;;11.80;99.90;;;;;;4916107;29;20048;-66
2022/04/12 03:37:48;;;;;;;16.08;10.15;;;11.80;99.90;;;;;;4908490;29;20538;-67
2022/04/12 03:40:15;;;;;;;13.10;9.82;;;11.70;99.90;;;;;;4921973;29;20422;-67
2022/04/12 03:42:42;;;;;;;15.65;10.48;;;11.70;99.90;;;;;;4916347;29;20048;-66
2022/04/12 03:45:09;;;;;;;16.17;11.43;;;11.70;99.90;;;;;;4915289;29;20052;-66
2022/04/12 03:47:38;;;;;;;13.80;10.82;;;11.60;99.90;;;;;;4922428;29;20469;-67
2022/04/12 03:50:06;;;;;;;16.70;12.40;;;11.50;99.90;;;;;;4924869;29;20063;-66
2022/04/12 03:52:32;;;;;;;18.85;12.52;;;11.40;99.90;;;;;;4930605;29;20052;-66
2022/04/12 03:55:00;;;;;;;23.30;14.43;;;11.30;99.90;;;;;;4915425;29;20488;-67
2022/04/12 03:57:27;;;;;;;21.67;13.95;;;11.20;99.90;;;;;;4919085;29;20139;-67
2022/04/12 03:59:54;;;;;;;23.05;15.30;;;11.20;99.90;;;;;;4925825;29;20040;-67
2022/04/12 04:02:20;;;;;;;23.20;14.93;;;11.10;99.90;;;;;;4914833;29;20123;-66
2022/04/12 04:04:47;;;;;;;24.52;15.98;;;11.00;99.90;;;;;;4915491;29;20054;-68
2022/04/12 04:07:14;;;;;;;20.20;15.43;;;10.90;99.90;;;;;;4915979;29;20056;-66
2022/04/12 04:09:41;;;;;;;25.98;16.25;;;10.90;99.90;;;;;;4917215;29;20087;-66
2022/04/12 04:12:08;;;;;;;22.08;17.58;;;10.80;99.90;;;;;;4913977;29;20052;-66
2022/04/12 04:14:35;;;;;;;21.17;15.38;;;10.70;99.90;;;;;;4913598;29;20058;-66
2022/04/12 04:17:02;;;;;;;19.13;13.75;;;10.60;99.90;;;;;;4915727;29;20048;-65
2022/04/12 04:19:29;;;;;;;22.90;15.48;;;10.60;99.90;;;;;;4914721;29;20051;-66
2022/04/12 04:21:56;;;;;;;23.52;16.27;;;10.50;99.90;;;;;;4913906;29;20506;-67
2022/04/12 04:24:23;;;;;;;26.13;16.58;;;10.50;99.90;;;;;;4930050;29;20044;-67
2022/04/12 04:26:55;;;;;;;23.25;15.77;;;10.40;99.90;;;;;;4914847;29;20056;-66
2022/04/12 04:29:32;;;;;;;22.15;15.50;;;10.40;99.90;;;;;;4922514;29;20127;-65
2022/04/12 04:31:59;;;;;;;24.52;16.10;;;10.40;99.90;;;;;;4919577;29;20496;-65
2022/04/12 04:34:26;;;;;;;21.60;15.73;;;10.30;99.90;;;;;;4913730;29;20052;-66
2022/04/12 04:36:53;;;;;;;23.70;15.75;;;10.30;99.90;;;;;;4917199;29;20048;-65
2022/04/12 04:39:20;;;;;;;20.77;14.98;;;10.30;99.90;;;;;;4929323;29;20040;-65
2022/04/12 04:41:46;;;;;;;23.80;15.23;;;10.30;99.90;;;;;;4905789;29;20051;-65
2022/04/12 04:44:13;;;;;;;21.92;15.60;;;10.40;99.90;;;;;;4914573;29;20048;-66
2022/04/12 04:46:40;;;;;;;24.55;17.00;;;10.30;99.90;;;;;;4915538;29;20078;-65
2022/04/12 04:49:09;;;;;;;23.73;16.80;;;10.40;99.90;;;;;;4913824;29;20052;-66
2022/04/12 04:51:41;;;;;;;31.63;17.50;;;10.40;99.90;;;;;;4920830;29;20056;-66
2022/04/12 04:54:08;;;;;;;25.13;16.67;;;10.40;99.90;;;;;;4921323;29;20565;-66
2022/04/12 04:56:35;;;;;;;23.00;17.13;;;10.40;99.90;;;;;;4912143;29;20058;-66
2022/04/12 04:59:02;;;;;;;21.13;14.80;;;10.40;99.90;;;;;;4902545;29;20044;-66
2022/04/12 05:01:29;;;;;;;22.33;16.73;;;10.40;99.90;;;;;;4915383;29;20056;-66
2022/04/12 05:03:56;;;;;;;24.48;16.88;;;10.30;99.90;;;;;;4915253;29;20048;-65
2022/04/12 05:06:23;;;;;;;19.05;14.77;;;10.30;99.90;;;;;;4913668;29;20056;-66
2022/04/12 05:08:50;;;;;;;23.83;18.63;;;10.30;99.90;;;;;;4913762;29;20056;-66
2022/04/12 05:11:17;;;;;;;20.35;15.88;;;10.30;99.90;;;;;;4919321;29;20055;-66
2022/04/12 05:13:44;;;;;;;21.60;17.02;;;10.30;99.90;;;;;;4925834;29;20055;-66
2022/04/12 05:16:11;;;;;;;28.70;19.33;;;10.30;99.90;;;;;;4915474;29;20048;-66
2022/04/12 05:18:38;;;;;;;25.23;17.98;;;10.40;99.90;;;;;;4899316;29;20196;-68
2022/04/12 05:21:05;;;;;;;25.40;18.20;;;10.40;99.90;;;;;;4923174;29;20059;-75
2022/04/12 05:23:32;;;;;;;24.52;17.92;;;10.40;99.90;;;;;;4918024;29;20056;-69
2022/04/12 05:25:59;;;;;;;24.40;17.42;;;10.40;99.90;;;;;;4914830;29;20048;-67
2022/04/12 05:28:26;;;;;;;24.08;17.20;;;10.40;99.90;;;;;;4912360;29;20067;-67
2022/04/12 05:30:53;;;;;;;30.33;20.38;;;10.50;99.90;;;;;;4917706;29;20052;-66
2022/04/12 05:33:20;;;;;;;25.40;18.63;;;10.50;99.90;;;;;;4925340;29;20512;-66
2022/04/12 05:35:47;;;;;;;25.65;17.55;;;10.50;99.90;;;;;;4918662;29;20058;-66
2022/04/12 05:38:14;;;;;;;24.60;17.75;;;10.50;99.90;;;;;;4920208;29;20064;-66
2022/04/12 05:40:41;;;;;;;27.88;17.75;;;10.50;99.90;;;;;;4921837;29;20396;-65
2022/04/12 05:43:08;;;;;;;30.17;18.60;;;10.60;99.90;;;;;;4931778;29;20044;-66
2022/04/12 05:45:35;;;;;;;26.35;18.25;;;10.60;99.90;;;;;;4915936;29;20052;-66
2022/04/12 05:48:02;;;;;;;21.92;16.08;;;10.70;99.90;;;;;;4936667;29;20070;-66
2022/04/12 05:50:29;;;;;;;22.77;15.25;;;10.80;99.90;;;;;;4928238;29;20055;-66
2022/04/12 05:52:56;;;;;;;19.23;13.98;;;10.80;99.90;;;;;;4934357;29;20439;-67
2022/04/12 05:55:23;;;;;;;22.42;14.50;;;10.90;99.90;;;;;;4919586;29;20070;-67
2022/04/12 05:58:00;;;;;;;21.08;13.10;;;11.00;99.90;;;;;;4932590;29;20051;-67
2022/04/12 06:00:31;;;;;;;18.27;13.15;;;11.10;99.90;;;;;;4921450;29;20477;-67
2022/04/12 06:02:58;;;;;;;17.75;12.95;;;11.20;99.90;;;;;;4924095;29;20040;-66
2022/04/12 06:05:28;;;;;;;19.90;13.55;;;11.20;99.90;;;;;;4920200;29;20561;-67
2022/04/12 06:07:55;;;;;;;19.98;12.68;;;11.30;99.90;;;;;;4922381;29;20044;-68
2022/04/12 06:10:22;;;;;;;22.52;15.30;;;11.30;99.90;;;;;;4916986;29;20077;-66
2022/04/12 06:12:56;;;;;;;34.17;23.73;;;11.40;99.90;;;;;;4917465;29;20096;-68
2022/04/12 06:15:23;;;;;;;22.65;16.67;;;11.40;99.90;;;;;;4918135;29;20079;-64
2022/04/12 06:17:50;;;;;;;24.05;18.33;;;11.30;99.90;;;;;;4927676;29;20044;-66
2022/04/12 06:20:17;;;;;;;21.85;15.80;;;11.40;99.90;;;;;;4920597;29;20059;-66
2022/04/12 06:22:44;;;;;;;23.98;16.13;;;11.30;99.90;;;;;;4922457;29;20139;-76
2022/04/12 06:25:14;;;;;;;29.73;19.70;;;11.30;99.90;;;;;;4916382;29;20044;-66
2022/04/12 06:27:42;;;;;;;180.02;135.82;;;11.40;99.90;;;;;;4916584;29;20103;-68
2022/04/12 06:30:11;;;;;;;36.47;23.73;;;11.40;99.90;;;;;;4917313;29;20040;-66
2022/04/12 06:32:38;;;;;;;22.23;15.40;;;11.50;99.90;;;;;;4915151;29;20103;-65
2022/04/12 06:35:06;;;;;;;21.75;12.38;;;11.60;99.90;;;;;;4916014;29;20048;-73
2022/04/12 06:37:33;;;;;;;18.17;11.32;;;11.70;99.90;;;;;;4910543;29;20051;-69
2022/04/12 06:40:00;;;;;;;11.30;8.00;;;11.90;99.90;;;;;;4916315;29;20488;-73
2022/04/12 06:42:27;;;;;;;11.90;7.70;;;12.10;99.90;;;;;;4916570;29;20052;-72
2022/04/12 06:44:54;;;;;;;9.18;6.28;;;12.30;99.90;;;;;;4917156;29;20074;-70
2022/04/12 06:47:20;;;;;;;10.77;6.90;;;12.50;99.90;;;;;;4920333;29;20441;-72
2022/04/12 06:49:49;;;;;;;9.55;6.72;;;12.70;99.90;;;;;;4900508;29;20551;-74
2022/04/12 06:52:16;;;;;;;10.07;6.20;;;12.80;99.90;;;;;;4921140;29;20063;-74
2022/04/12 06:54:43;;;;;;;9.25;5.97;;;13.00;99.90;;;;;;4915866;29;20503;-74
2022/04/12 06:57:10;;;;;;;9.98;6.30;;;13.10;99.90;;;;;;4915393;29;20104;-72
2022/04/12 06:59:37;;;;;;;8.77;5.88;;;13.20;99.90;;;;;;4924033;29;20107;-73
2022/04/12 07:02:04;;;;;;;9.43;5.97;;;13.30;99.90;;;;;;4935395;29;20086;-76
2022/04/12 07:04:31;;;;;;;8.57;6.00;;;13.40;99.90;;;;;;4925200;29;20444;-74
2022/04/12 07:06:59;;;;;;;7.47;5.72;;;13.50;99.90;;;;;;4923525;29;20056;-74
2022/04/12 07:09:27;;;;;;;7.80;5.95;;;13.60;99.90;;;;;;4910090;29;20056;-74
2022/04/12 07:11:54;;;;;;;10.70;6.82;;;13.60;99.90;;;;;;4923943;29;20044;-74
2022/04/12 07:14:21;;;;;;;12.27;6.03;;;13.70;99.90;;;;;;4912200;29;20444;-73
2022/04/12 07:16:48;;;;;;;12.82;5.68;;;13.80;99.90;;;;;;4898056;29;20052;-73
2022/04/12 07:19:15;;;;;;;7.80;5.55;;;13.80;99.90;;;;;;4897102;29;20063;-73
2022/04/12 07:21:42;;;;;;;9.30;5.15;;;13.90;99.90;;;;;;4907163;29;20040;-73
2022/04/12 07:24:09;;;;;;;8.77;6.18;;;14.00;99.90;;;;;;4926990;29;20039;-72
2022/04/12 07:26:36;;;;;;;7.05;5.55;;;14.10;99.90;;;;;;4916814;29;20052;-70
2022/04/12 07:29:03;;;;;;;7.13;4.93;;;14.20;99.90;;;;;;4917182;29;20052;-73
2022/04/12 07:31:30;;;;;;;7.35;5.38;;;14.30;99.90;;;;;;4915974;29;20103;-73
2022/04/12 07:33:57;;;;;;;7.28;5.30;;;14.50;99.90;;;;;;4915708;29;20497;-72
2022/04/12 07:36:24;;;;;;;12.20;5.35;;;14.60;99.90;;;;;;4916467;29;20056;-74
2022/04/12 07:38:51;;;;;;;10.02;4.70;;;14.70;99.90;;;;;;4898774;29;20049;-70
2022/04/12 07:41:18;;;;;;;7.68;5.07;;;14.80;99.90;;;;;;4900377;29;20055;-78
2022/04/12 07:43:46;;;;;;;186.23;144.27;;;14.90;99.90;;;;;;4915024;29;20051;-75
2022/04/12 07:46:13;;;;;;;13.98;11.38;;;15.10;99.90;;;;;;4914520;29;20058;-72
2022/04/12 07:48:47;;;;;;;10.88;7.20;;;15.20;99.90;;;;;;4915306;29;20127;-80
2022/04/12 07:51:15;;;;;;;10.98;5.80;;;15.40;99.90;;;;;;4915091;29;20088;-84
2022/04/12 07:53:42;;;;;;;7.32;5.18;;;15.40;99.90;;;;;;4914703;29;20048;-81
2022/04/12 07:56:09;;;;;;;6.28;4.18;;;15.50;99.90;;;;;;4913745;29;20503;-73
2022/04/12 07:58:35;;;;;;;6.32;5.10;;;15.60;99.90;;;;;;4915823;29;20054;-78
2022/04/12 08:01:02;;;;;;;7.55;4.30;;;15.50;99.90;;;;;;4919018;29;20075;-76
2022/04/12 08:03:29;;;;;;;10.48;4.97;;;15.60;99.90;;;;;;4923954;29;20050;-74
2022/04/12 08:05:56;;;;;;;12.52;4.60;;;15.60;99.90;;;;;;4916567;29;20174;-71
2022/04/12 08:08:23;;;;;;;6.53;4.30;;;15.60;99.90;;;;;;4899205;29;20052;-73
2022/04/12 08:10:50;;;;;;;6.95;4.57;;;15.70;99.90;;;;;;4915103;29;20331;-73
2022/04/12 08:13:17;;;;;;;7.28;4.93;;;15.70;99.90;;;;;;4913291;29;20518;-78
2022/04/12 08:15:44;;;;;;;9.35;4.35;;;15.80;99.90;;;;;;4917039;29;20048;-68
2022/04/12 08:18:12;;;;;;;7.03;4.80;;;15.90;99.90;;;;;;4915673;29;20127;-66
2022/04/12 08:20:39;;;;;;;13.20;5.18;;;16.00;99.90;;;;;;4911979;29;20058;-71
2022/04/12 08:23:05;;;;;;;37.03;7.18;;;16.10;99.90;;;;;;4916358;29;20044;-76
2022/04/12 08:25:32;;;;;;;14.50;4.30;;;16.20;99.90;;;;;;4914412;29;20500;-75
2022/04/12 08:27:59;;;;;;;18.42;6.10;;;16.20;99.90;;;;;;4915928;29;20056;-75
2022/04/12 08:30:26;;;;;;;11.80;4.90;;;16.30;99.90;;;;;;4915895;29;20339;-77
2022/04/12 08:32:53;;;;;;;9.75;5.38;;;16.30;99.90;;;;;;4915139;29;20244;-77
2022/04/12 08:35:20;;;;;;;31.02;6.50;;;16.40;99.90;;;;;;4915023;29;20052;-77
2022/04/12 08:37:47;;;;;;;52.70;8.20;;;16.50;99.90;;;;;;4915073;29;20052;-76
2022/04/12 08:40:15;;;;;;;6.00;4.05;;;16.60;99.90;;;;;;4897271;29;20052;-74
2022/04/12 08:42:42;;;;;;;64.03;10.55;;;16.70;99.90;;;;;;4914486;29;20408;-74
2022/04/12 08:45:09;;;;;;;8.52;4.43;;;16.80;99.90;;;;;;4911649;29;20047;-72
2022/04/12 08:47:36;;;;;;;10.23;4.28;;;16.90;99.90;;;;;;4914463;29;20250;-69
2022/04/12 08:50:04;;;;;;;40.78;7.45;;;17.00;99.90;;;;;;4914481;29;20054;-70
2022/04/12 08:52:31;;;;;;;13.95;3.95;;;17.00;99.30;;;;;;4914845;29;20044;-74
2022/04/12 08:54:58;;;;;;;14.15;4.50;;;17.00;99.90;;;;;;4911761;29;20048;-70
2022/04/12 08:57:25;;;;;;;6.22;3.97;;;17.20;99.90;;;;;;4911412;29;20524;-72
2022/04/12 08:59:52;;;;;;;8.25;3.45;;;17.30;99.80;;;;;;4912007;29;20492;-67
2022/04/12 09:02:19;;;;;;;5.35;3.55;;;17.40;98.80;;;;;;4914373;29;20059;-73
2022/04/12 09:04:46;;;;;;;7.90;3.42;;;17.30;98.00;;;;;;4912582;29;20048;-71
2022/04/12 09:07:13;;;;;;;10.10;4.45;;;17.30;99.30;;;;;;4912229;29;20484;-75
2022/04/12 09:09:42;;;;;;;11.05;3.85;;;17.20;99.60;;;;;;4912095;29;20134;-68
2022/04/12 09:12:13;;;;;;;8.57;3.28;;;17.20;99.90;;;;;;4911389;29;20139;-70
2022/04/12 09:14:47;;;;;;;8.98;3.97;;;17.30;99.80;;;;;;4910250;29;20047;-69
2022/04/12 09:17:15;;;;;;;7.13;4.25;;;17.30;99.80;;;;;;4911439;29;20048;-69
2022/04/12 09:19:49;;;;;;;10.93;4.47;;;17.40;98.90;;;;;;4910517;29;20076;-70
2022/04/12 09:22:24;;;;;;;9.10;4.25;;;17.50;98.70;;;;;;4909187;29;20064;-71
2022/04/12 09:24:52;;;;;;;7.30;3.63;;;17.50;98.50;;;;;;4915419;29;20103;-71
2022/04/12 09:27:24;;;;;;;6.90;3.58;;;17.50;99.10;;;;;;4911000;29;20103;-69
2022/04/12 09:29:55;;;;;;;11.25;4.45;;;17.50;99.60;;;;;;4914881;29;20428;-75
2022/04/12 09:32:26;;;;;;;15.30;4.90;;;17.40;99.30;;;;;;4915561;29;20096;-75
2022/04/12 09:34:54;;;;;;;14.63;4.75;;;17.50;99.90;;;;;;4912462;29;20433;-66
2022/04/12 09:37:22;;;;;;;44.92;7.55;;;17.60;99.00;;;;;;4905835;29;20071;-67
2022/04/12 09:39:56;;;;;;;8.50;4.85;;;17.60;98.40;;;;;;4912492;29;20075;-73
2022/04/12 09:42:43;;;;;;;10.02;4.40;;;17.70;97.50;;;;;;4912510;29;20055;-72
2022/04/12 09:45:29;;;;;;;11.52;3.55;;;17.70;96.20;;;;;;4911160;29;20040;-72
2022/04/12 09:47:59;;;;;;;8.00;3.50;;;17.90;97.60;;;;;;4917593;29;20060;-70
2022/04/12 09:50:46;;;;;;;5.93;3.45;;;18.10;98.10;;;;;;4909175;29;20064;-72
2022/04/12 09:53:13;;;;;;;9.25;4.07;;;18.20;96.20;;;;;;4912688;29;20052;-74
2022/04/12 09:55:44;;;;;;;41.15;6.88;;;18.30;96.60;;;;;;4909670;29;20048;-68
2022/04/12 09:58:15;;;;;;;14.63;4.60;;;18.50;95.80;;;;;;4914660;29;20053;-76
2022/04/12 10:00:43;;;;;;;7.35;3.50;;;18.50;95.20;;;;;;4910685;29;20055;-77
2022/04/12 10:03:12;;;;;;;14.45;4.40;;;18.40;94.70;;;;;;4911423;29;20048;-75
2022/04/12 10:05:39;;;;;;;10.60;4.15;;;18.40;95.20;;;;;;4911147;29;20056;-72
2022/04/12 10:08:09;;;;;;;14.38;4.15;;;18.40;95.20;;;;;;4899289;29;20052;-75
2022/04/12 10:10:39;;;;;;;6.53;3.75;;;18.50;96.20;;;;;;4916911;29;20516;-76
2022/04/12 10:13:06;;;;;;;6.95;3.33;;;18.60;94.80;;;;;;4894420;29;20048;-72
2022/04/12 10:15:33;;;;;;;10.98;3.78;;;18.70;94.70;;;;;;4914130;29;20130;-71
2022/04/12 10:18:00;;;;;;;25.73;5.70;;;18.70;94.50;;;;;;4912798;29;20488;-73
2022/04/12 10:20:27;;;;;;;8.52;3.83;;;18.80;93.50;;;;;;4903313;29;20052;-73
2022/04/12 10:22:54;;;;;;;4.93;3.50;;;18.90;93.40;;;;;;4910693;29;20049;-72
2022/04/12 10:25:21;;;;;;;6.40;3.42;;;18.80;92.60;;;;;;4910944;29;20052;-70
2022/04/12 10:27:55;;;;;;;10.55;3.40;;;18.80;93.20;;;;;;4913741;29;20052;-72
2022/04/12 10:30:30;;;;;;;10.00;3.88;;;18.90;93.00;;;;;;4879141;29;20519;-75
2022/04/12 10:33:04;;;;;;;9.00;3.38;;;18.90;93.30;;;;;;4914203;29;20135;-72
2022/04/12 10:35:55;;;;;;;11.35;4.32;;;19.00;93.50;;;;;;4914572;29;20048;-70
2022/04/12 10:38:23;;;;;;;12.60;5.35;;;19.10;94.70;;;;;;4914068;29;20044;-72
2022/04/12 10:40:55;;;;;;;8.82;3.25;;;19.30;94.40;;;;;;4912709;29;20400;-70
2022/04/12 10:43:33;;;;;;;10.45;3.30;;;19.40;92.40;;;;;;4916016;29;20055;-66
2022/04/12 10:46:04;;;;;;;7.57;4.17;;;19.40;92.60;;;;;;4914923;29;20460;-70
2022/04/12 10:48:31;;;;;;;7.95;3.97;;;19.60;94.00;;;;;;4908309;29;20052;-68
2022/04/12 10:50:59;;;;;;;10.75;3.83;;;19.60;92.10;;;;;;4914283;29;20064;-72
2022/04/12 10:53:38;;;;;;;7.05;3.67;;;19.60;92.10;;;;;;4914218;29;20078;-70
2022/04/12 10:56:12;;;;;;;11.55;4.95;;;19.70;90.90;;;;;;4913124;29;20044;-66
2022/04/12 10:58:39;;;;;;;7.85;3.50;;;19.70;92.20;;;;;;4906933;29;20536;-66
2022/04/12 11:01:09;;;;;;;8.57;3.72;;;19.90;90.70;;;;;;4915200;29;20680;-74
2022/04/12 11:03:43;;;;;;;9.52;4.03;;;19.90;90.60;;;;;;4914070;29;20452;-72
2022/04/12 11:06:13;;;;;;;6.25;3.85;;;19.70;90.40;;;;;;4902080;29;20472;-68
2022/04/12 11:08:43;;;;;;;9.02;4.25;;;19.60;90.80;;;;;;4915845;29;20056;-69
2022/04/12 11:11:10;;;;;;;6.05;3.63;;;19.50;91.10;;;;;;4913654;29;20055;-68
2022/04/12 11:13:38;;;;;;;8.43;4.18;;;19.50;92.10;;;;;;4914426;29;20436;-69
2022/04/12 11:16:09;;;;;;;6.65;3.88;;;19.60;92.60;;;;;;4915517;29;20100;-66
2022/04/12 11:18:52;;;;;;;8.48;3.88;;;19.60;91.80;;;;;;4914787;29;20502;-69
2022/04/12 11:22:04;;;;;;;8.02;4.45;;;19.60;91.70;;;;;;4916882;29;20044;-73
2022/04/12 11:24:32;;;;;;;7.85;3.45;;;19.70;92.00;;;;;;4914268;29;20040;-72
2022/04/12 11:27:05;;;;;;;7.40;3.55;;;19.70;91.40;;;;;;4915107;29;20067;-67
2022/04/12 11:29:32;;;;;;;7.50;3.20;;;19.60;91.80;;;;;;4920437;29;20063;-68
2022/04/12 11:32:02;;;;;;;;;;;19.60;92.10;;;;;;4920532;29;20087;-67
2022/04/12 11:34:29;;;;;;;8.65;4.28;;;19.50;90.60;;;;;;4904327;29;20458;-71
2022/04/12 11:36:58;;;;;;;7.25;3.53;;;19.60;91.00;;;;;;4918629;29;20062;-68
2022/04/12 11:39:27;;;;;;;12.43;3.20;;;19.60;90.30;;;;;;4922222;29;20056;-66
2022/04/12 11:41:57;;;;;;;6.60;3.30;;;19.60;91.80;;;;;;4900902;29;20044;-67
2022/04/12 11:44:24;;;;;;;7.90;3.17;;;19.70;90.80;;;;;;4907995;29;20063;-66
2022/04/12 11:46:56;;;;;;;6.60;2.65;;;19.70;90.30;;;;;;4924094;29;20127;-68
2022/04/12 11:49:33;;;;;;;12.20;4.20;;;19.70;91.60;;;;;;4935913;29;20040;-68
2022/04/12 11:52:01;;;;;;;8.27;3.90;;;19.80;90.20;;;;;;4927076;29;20056;-67
2022/04/12 11:54:29;;;;;;;8.05;2.88;;;19.80;91.10;;;;;;4929607;29;20058;-69
2022/04/12 11:57:03;;;;;;;16.60;10.07;;;19.90;90.70;;;;;;4922826;29;20489;-68
2022/04/12 11:59:52;;;;;;;10.13;6.68;;;19.90;90.90;;;;;;4904984;29;20107;-70
2022/04/12 12:02:20;;;;;;;5.47;3.22;;;19.90;89.00;;;;;;4914293;29;20047;-67
2022/04/12 12:04:56;;;;;;;10.18;3.30;;;19.90;89.90;;;;;;4920388;29;20139;-68
2022/04/12 12:07:23;;;;;;;9.05;3.72;;;19.90;90.40;;;;;;4929349;29;20056;-68
2022/04/12 12:10:09;;;;;;;9.35;3.63;;;19.90;90.50;;;;;;4902957;29;20060;-69
2022/04/12 12:12:46;;;;;;;6.10;3.28;;;19.90;90.70;;;;;;4911123;29;20052;-68
2022/04/12 12:15:24;;;;;;;10.10;3.42;;;19.90;90.40;;;;;;4925079;29;20095;-69
2022/04/12 12:18:07;;;;;;;7.53;5.07;;;20.00;90.80;;;;;;4920526;29;20142;-68
2022/04/12 12:20:35;;;;;;;7.65;3.60;;;20.20;90.80;;;;;;4921045;29;20047;-69
2022/04/12 12:23:04;;;;;;;14.07;4.05;;;20.30;91.20;;;;;;4920642;29;20052;-69
2022/04/12 12:25:46;;;;;;;7.55;3.22;;;20.40;90.60;;;;;;4920458;29;20488;-69
2022/04/12 12:28:16;;;;;;;8.18;3.85;;;20.50;89.80;;;;;;4924883;29;20440;-69
2022/04/12 12:30:46;;;;;;;6.13;2.70;;;20.50;90.80;;;;;;4923208;29;20048;-70
2022/04/12 12:33:13;;;;;;;6.15;3.38;;;20.60;90.90;;;;;;4927646;29;20369;-68
2022/04/12 12:35:45;;;;;;;6.75;3.50;;;20.60;90.30;;;;;;4929131;29;20043;-71
2022/04/12 12:38:13;;;;;;;10.05;4.32;;;20.70;90.10;;;;;;4918101;29;20043;-68
2022/04/12 12:40:44;;;;;;;6.85;3.30;;;20.70;90.10;;;;;;4932605;29;20515;-68
2022/04/12 12:43:12;;;;;;;7.30;3.20;;;20.70;88.90;;;;;;4913438;29;20079;-68
2022/04/12 12:45:46;;;;;;;9.85;3.38;;;20.60;89.50;;;;;;4912574;29;20140;-68